Aeroporto :
LOGIN :

Iscrizione | Disclaimer

   EN    FR    IT 

 










Sommario :    VFR   VFR Marginale   IFR   IFR Intensivo   IFR Molto Intensivo
Visibilità : 
Base nubi : 
>= 8 km
>= 3000ft
5 / 8 km
1000 / 3000 ft
1500m / 5 km
500 / 1000 ft
800 / 1500m
200 / 500 ft
< 800m
< 200 ft
Simboli :   Temporali  Nebbia  Neve Forte  Precipitazioni Forti  Vento > 20 kt
SIGMETs :   Varie  Temporali  Ghiacco  Turbolenza  Onda orograficha  Ceneri Vulcaniche






- Altitudine del aeroporto : 588 ft
- Codice IATA : DME


UUDD - Domodedovo International

ULTIMO METAR :
  • 232100Z 23003MPS 200V260 8000 -SNRA BKN003 02/01 Q1008 R32L/520242 NOSIG

METARs OBSOLETI :
  • 232030Z 23003MPS 200V260 8000 -SNRA BKN003 02/01 Q1008 R32L/520242 NOSIG
  • 232000Z 22003MPS 190V270 5000 -SNRA BR BKN003 02/01 Q1008 R32L/520242 NOSIG
  • 231930Z 23003MPS 180V270 4900 -SNRA BR BKN003 02/01 Q1008 R32L/520242 NOSIG
  • 231900Z 23003MPS 200V290 6000 -SNRA BKN002 02/01 Q1008 R32L/520242 NOSIG
  • 231830Z 22003MPS 190V270 6000 -SNRA SCT002 02/01 Q1008 R32L/550240 NOSIG

TAF TAF UUDD
Valido dal 23 a 21 ore il 25 a 03 ore UTC


231954Z 2321/2503 22003MPS 3100 BR OVC003 TX03/2410Z TN00/2421Z
TEMPO 2321/2408 1000 -SNRA BR OVC001
BECMG 2408/2410 9999 NSW FEW007 SCT011
TEMPO 2410/2418 2000 SHSNRA BKN016CB
BECMG 2418/2420 28006MPS



MetMap, La meteo Aeronautica in un colpo d'occhio ! - Copyright ORBIFLY Dicembre 2007 - Disclaimer

ORBIFLY MET'MAP TEAM :

Programmazione e sviluppo : Alexandra Zaïnal
Concezione : Baudouin d'Aumeries
Aiuto per la programmazione : Marc-Olivier Méhu
Supporto tecnico e logistico : Manuel Goepfert
Aiuto per la traduzione : Arnaldo La Scala

Contatto : metmap@orbifly.com




FONTI E CREDITI :

   NOAA